Skip Navigation LinksHome page > Weather > Current weather Skip Navigation Links

Current Weather

Central Park, New York

For information only: do not use for flight planning or navigation.
Latest weather
Observation time Friday, October 20, 2017 12:51 AM EDT
Local time Friday, October 20, 2017 12:58 AM EDT
Flight conditions Visual Meteorological Conditions
Winds
Wind direction West (270°)
Winds variable from 220° to 310°
Wind speed 8 mph
Visibility 10 mi.
Sky condition
Ceiling unlimited
Sky clear
Temperature 62°F
Dewpoint 46°F
Altimeter 30.10 in.Hg
Derived measurements
Relative humidity 56%
Density altitude 307 ft.
Sea-level pressure 30.07 in.Hg
Climate data
Temperature minimum, last 24 hours 56°F
Temperature maximum, last 24 hours 71°F
Remarks
Fully automated report.
System requires maintenance.
Automated weather observing station with precipitation discriminator.
METAR KNYC 200451Z AUTO 27007KT 220V310 10SM CLR 17/08 A3010 RMK AO2 SLP184 T01670078 402170133 $

Settings

Location code

InnerDrive.Weather 4.0.6144.1 Release CLR 4.0.30319.36366
Copyright ©2015 Inner Drive Technology. All rights reserved. Portions Copyright ©1986-2015 David Braverman.

Find weather

Site navigation


Skip Navigation Links

Place info

Page info

PayPal - The safer, easier way to pay online!

Return home.

Copyright ©2017 Inner Drive Technology. Purveyors of fine, hand-crafted computer software. Page printed 2017-10-20T04:58:22 UTC.